Ashaiiu, Virginia
Current Conditions -  °F | °C
As of 5:54 PM on Tuesday 21 Oct 2014 (Local Time) from KOFP Reporting Station
Overcast Overcast  
Wind Chill: 65°   Ceiling: 11000
Heat Index: 65°   Visibility: 10mi
Dew Point: 49°   Wind: 3mph
Humidity: 56%   Direction: 340°NNW
Pressure: 29.83"   Gusts: NA
Location:  37.7534°N, 77.495°W
Report Text: KOFP 212154Z AUTO 34003KT 10SM OVC110 18/09 A2983 RMK AO2 SLP099 T01830094
Loading
Personal Weather Stations






























Interactive Weather Map
Tropical Storm Tracking
New forecast layout! Learn more

10-Day Weather Forecast

Advertisements
Track Severe Weather on mobile